createdAt,value
2022-09-04T00:00:10.498Z,4.83
2022-09-04T00:02:52.121Z,4.93
2022-09-04T00:05:35.290Z,6.73
2022-09-04T00:08:14.421Z,4.77
2022-09-04T00:11:05.012Z,6.17
2022-09-04T00:13:57.290Z,4.80
2022-09-04T00:16:43.194Z,4.73
2022-09-04T00:19:18.580Z,5.87
2022-09-04T00:21:52.413Z,5.80
2022-09-04T00:24:24.439Z,5.70
2022-09-04T00:26:59.269Z,4.77
2022-09-04T00:29:40.876Z,5.13
2022-09-04T00:32:19.167Z,6.30
2022-09-04T00:35:03.794Z,6.40
2022-09-04T00:37:36.186Z,7.43
2022-09-04T00:40:27.200Z,5.13
2022-09-04T00:43:26.173Z,6.43
2022-09-04T00:46:18.504Z,5.03
2022-09-04T00:49:11.553Z,5.17
2022-09-04T00:51:59.854Z,5.67
2022-09-04T00:54:32.055Z,5.43
2022-09-04T00:57:25.759Z,7.03
2022-09-04T01:00:26.939Z,4.63
2022-09-04T01:03:17.491Z,8.23
2022-09-04T01:06:29.487Z,5.10
2022-09-04T01:09:25.020Z,4.80
2022-09-04T01:11:51.346Z,5.50
2022-09-04T01:14:42.492Z,5.10
2022-09-04T01:17:29.245Z,5.40
2022-09-04T01:20:20.137Z,4.83
2022-09-04T01:23:10.273Z,4.70
2022-09-04T01:26:00.721Z,6.03
2022-09-04T01:29:18.562Z,6.53
2022-09-04T01:31:55.624Z,4.97
2022-09-04T01:34:35.666Z,4.93
2022-09-04T01:37:44.665Z,5.40
2022-09-04T01:40:46.278Z,5.53
2022-09-04T01:43:21.082Z,5.20
2022-09-04T01:46:05.434Z,5.13
2022-09-04T01:48:45.866Z,5.93
2022-09-04T01:51:24.652Z,7.47
2022-09-04T01:54:19.731Z,5.87
2022-09-04T01:57:14.911Z,6.70
2022-09-04T01:59:41.229Z,6.90
2022-09-04T02:02:22.881Z,6.80
2022-09-04T02:05:08.690Z,7.27
2022-09-04T02:07:53.409Z,7.67
2022-09-04T02:10:56.524Z,8.53
2022-09-04T02:13:51.360Z,10.03
2022-09-04T02:16:31.035Z,9.13
2022-09-04T02:18:57.493Z,8.37
2022-09-04T02:21:36.631Z,8.63
2022-09-04T02:24:17.332Z,10.97
2022-09-04T02:27:05.704Z,8.53
2022-09-04T02:29:48.657Z,11.43
2022-09-04T02:32:25.676Z,10.63
2022-09-04T02:35:05.033Z,8.47
2022-09-04T02:37:34.408Z,8.80
2022-09-04T02:40:18.283Z,8.60
2022-09-04T02:42:53.191Z,9.77
2022-09-04T02:45:32.214Z,13.30
2022-09-04T02:48:13.344Z,10.13
2022-09-04T02:51:13.740Z,9.37
2022-09-04T02:54:01.720Z,7.53
2022-09-04T02:56:40.882Z,10.00
2022-09-04T02:59:24.490Z,8.37
2022-09-04T03:02:03.923Z,7.67
2022-09-04T03:04:36.330Z,9.20
2022-09-04T03:07:21.005Z,7.97
2022-09-04T03:09:57.506Z,8.80
2022-09-04T03:12:42.561Z,9.70
2022-09-04T03:15:17.808Z,9.97
2022-09-04T03:18:01.764Z,8.63
2022-09-04T03:20:31.808Z,9.20
2022-09-04T03:23:17.555Z,9.83
2022-09-04T03:26:24.021Z,8.00
2022-09-04T03:29:10.038Z,13.07
2022-09-04T03:31:49.773Z,8.20
2022-09-04T03:34:25.092Z,9.40
2022-09-04T03:37:19.681Z,9.10
2022-09-04T03:40:05.016Z,10.20
2022-09-04T03:42:58.400Z,8.47
2022-09-04T03:45:55.396Z,11.63
2022-09-04T03:48:36.776Z,10.03
2022-09-04T03:51:20.820Z,11.17
2022-09-04T03:54:44.244Z,9.53
2022-09-04T03:57:48.504Z,10.73
2022-09-04T04:00:19.976Z,13.03
2022-09-04T04:03:04.754Z,10.17
2022-09-04T04:05:50.079Z,10.93
2022-09-04T04:09:11.819Z,9.33
2022-09-04T04:12:03.264Z,10.27
2022-09-04T04:14:46.586Z,10.27
2022-09-04T04:17:52.643Z,12.57
2022-09-04T04:20:51.094Z,11.33
2022-09-04T04:23:36.353Z,12.53
2022-09-04T04:26:21.505Z,12.23
2022-09-04T04:28:59.920Z,10.60
2022-09-04T04:32:10.702Z,10.40
2022-09-04T04:34:58.205Z,13.10
2022-09-04T04:37:51.707Z,11.40
2022-09-04T04:40:45.351Z,12.70
2022-09-04T04:43:30.391Z,11.97
2022-09-04T04:46:22.338Z,10.30
2022-09-04T04:49:19.973Z,12.67
2022-09-04T04:52:31.073Z,13.97
2022-09-04T04:55:20.444Z,14.23
2022-09-04T04:58:18.457Z,11.47
2022-09-04T05:01:05.144Z,12.33
2022-09-04T05:03:37.460Z,12.57
2022-09-04T05:06:09.588Z,12.40
2022-09-04T05:08:44.952Z,13.83
2022-09-04T05:11:17.278Z,11.70
2022-09-04T05:14:26.472Z,11.90
2022-09-04T05:16:57.511Z,10.53
2022-09-04T05:19:38.463Z,13.07
2022-09-04T05:22:16.892Z,11.03
2022-09-04T05:25:02.127Z,12.53
2022-09-04T05:28:05.285Z,12.37
2022-09-04T05:30:56.614Z,13.30
2022-09-04T05:33:38.515Z,12.03
2022-09-04T05:36:09.101Z,12.50
2022-09-04T05:38:44.205Z,11.50
2022-09-04T05:41:48.960Z,12.73
2022-09-04T05:44:38.881Z,11.43
2022-09-04T05:47:34.681Z,12.80
2022-09-04T05:50:10.267Z,12.03
2022-09-04T05:52:47.706Z,11.80
2022-09-04T05:55:31.932Z,14.33
2022-09-04T05:58:11.040Z,11.77
2022-09-04T06:01:01.550Z,14.00
2022-09-04T06:04:04.467Z,14.23
2022-09-04T06:06:36.377Z,11.73
2022-09-04T06:09:28.777Z,13.20
2022-09-04T06:12:22.567Z,14.57
2022-09-04T06:15:00.937Z,11.53
2022-09-04T06:17:42.192Z,15.40
2022-09-04T06:20:45.984Z,14.10
2022-09-04T06:23:18.148Z,12.97
2022-09-04T06:26:20.055Z,15.60
2022-09-04T06:29:08.428Z,10.97
2022-09-04T06:31:57.354Z,12.83
2022-09-04T06:34:42.276Z,13.27
2022-09-04T06:37:25.812Z,14.33
2022-09-04T06:40:07.919Z,15.23
2022-09-04T06:42:49.903Z,14.10
2022-09-04T06:45:20.761Z,13.57
2022-09-04T06:48:00.040Z,16.10
2022-09-04T06:50:32.456Z,13.23
2022-09-04T06:53:19.730Z,15.27
2022-09-04T06:56:08.081Z,11.60
2022-09-04T06:59:02.445Z,12.37
2022-09-04T07:02:01.589Z,12.93
2022-09-04T07:05:04.017Z,18.27
2022-09-04T07:07:36.267Z,12.80
2022-09-04T07:10:15.001Z,13.07
2022-09-04T07:13:00.156Z,17.10
2022-09-04T07:15:38.435Z,16.17
2022-09-04T07:18:29.909Z,11.93
2022-09-04T07:21:18.625Z,15.10
2022-09-04T07:24:19.172Z,13.33
2022-09-04T07:27:01.508Z,11.83
2022-09-04T07:29:41.666Z,13.23
2022-09-04T07:32:24.960Z,16.50
2022-09-04T07:35:03.042Z,15.33
2022-09-04T07:37:40.771Z,13.23
2022-09-04T07:40:13.488Z,13.50
2022-09-04T07:42:49.048Z,11.53
2022-09-04T07:45:27.791Z,12.33
2022-09-04T07:48:06.960Z,12.90
2022-09-04T07:50:51.172Z,13.90
2022-09-04T07:53:34.862Z,12.30
2022-09-04T07:56:14.712Z,11.20
2022-09-04T07:58:59.267Z,13.27
2022-09-04T08:02:03.779Z,11.57
2022-09-04T08:04:54.876Z,12.50
2022-09-04T08:07:48.572Z,11.50
2022-09-04T08:10:38.666Z,11.27
2022-09-04T08:13:34.513Z,12.07
2022-09-04T08:16:15.219Z,12.47
2022-09-04T08:19:10.858Z,13.17
2022-09-04T08:21:48.599Z,10.97
2022-09-04T08:24:33.070Z,12.43
2022-09-04T08:27:44.183Z,10.43
2022-09-04T08:30:14.239Z,11.67
2022-09-04T08:33:00.912Z,13.67
2022-09-04T08:35:42.301Z,12.90
2022-09-04T08:38:45.522Z,13.00
2022-09-04T08:41:30.304Z,9.30
2022-09-04T08:44:31.860Z,13.50
2022-09-04T08:47:14.154Z,11.87
2022-09-04T08:50:10.002Z,10.47
2022-09-04T08:53:04.126Z,9.47
2022-09-04T08:55:49.125Z,10.57
2022-09-04T08:58:24.450Z,9.93
2022-09-04T09:01:20.100Z,10.77
2022-09-04T09:04:05.496Z,10.03
2022-09-04T09:06:44.471Z,10.13
2022-09-04T09:09:29.562Z,7.90
2022-09-04T09:12:17.913Z,10.90
2022-09-04T09:14:53.308Z,12.57
2022-09-04T09:17:39.109Z,13.77
2022-09-04T09:20:26.610Z,9.00
2022-09-04T09:23:19.733Z,12.07
2022-09-04T09:26:06.251Z,9.80
2022-09-04T09:28:59.563Z,10.13
2022-09-04T09:32:07.152Z,9.50
2022-09-04T09:35:01.193Z,10.53
2022-09-04T09:37:33.991Z,10.33
2022-09-04T09:40:21.335Z,9.43
2022-09-04T09:43:09.465Z,10.57
2022-09-04T09:46:00.710Z,8.10
2022-09-04T09:48:40.999Z,10.00
2022-09-04T09:51:29.143Z,10.07
2022-09-04T09:54:23.536Z,9.70
2022-09-04T09:57:18.993Z,8.97
2022-09-04T10:00:07.171Z,10.10
2022-09-04T10:02:45.785Z,12.00
2022-09-04T10:05:54.223Z,11.97
2022-09-04T10:08:36.508Z,10.93
2022-09-04T10:11:31.364Z,7.37
2022-09-04T10:14:28.889Z,6.07
2022-09-04T10:17:22.853Z,7.50
2022-09-04T10:19:58.651Z,6.60
2022-09-04T10:22:53.134Z,9.40
2022-09-04T10:25:57.149Z,9.20
2022-09-04T10:28:51.362Z,6.00
2022-09-04T10:31:44.528Z,6.47
2022-09-04T10:34:38.296Z,7.00
2022-09-04T10:37:33.807Z,5.90
2022-09-04T10:40:21.860Z,5.93
2022-09-04T10:43:12.278Z,7.07
2022-09-04T10:46:01.152Z,5.40
2022-09-04T10:48:59.749Z,5.80
2022-09-04T10:51:56.307Z,6.07
2022-09-04T10:55:04.844Z,5.93
2022-09-04T10:57:50.063Z,4.93
2022-09-04T11:00:20.049Z,5.10
2022-09-04T11:03:04.548Z,4.70
2022-09-04T11:05:57.220Z,4.07
2022-09-04T11:08:36.555Z,4.97
2022-09-04T11:11:21.918Z,6.10
2022-09-04T11:14:33.883Z,8.70
2022-09-04T11:17:19.698Z,5.33
2022-09-04T11:20:18.475Z,4.83
2022-09-04T11:23:24.728Z,7.80
2022-09-04T11:26:39.271Z,3.67
2022-09-04T11:29:18.065Z,3.63
2022-09-04T11:32:18.714Z,4.57
2022-09-04T11:35:19.266Z,4.20
2022-09-04T11:37:58.489Z,5.47
2022-09-04T11:41:01.419Z,4.90
2022-09-04T11:43:52.246Z,3.40
2022-09-04T11:46:29.176Z,3.10
2022-09-04T11:49:23.465Z,6.47
2022-09-04T11:52:16.596Z,3.13
2022-09-04T11:54:48.815Z,4.60
2022-09-04T11:57:15.147Z,3.33
2022-09-04T11:59:50.095Z,4.57
2022-09-04T12:02:40.511Z,3.37
2022-09-04T12:05:18.662Z,3.67
2022-09-04T12:08:22.646Z,4.30
2022-09-04T12:11:03.488Z,3.03
2022-09-04T12:13:37.789Z,3.17
2022-09-04T12:16:38.501Z,3.10
2022-09-04T12:19:39.931Z,3.90
2022-09-04T12:22:26.403Z,2.37
2022-09-04T12:25:06.808Z,2.57
2022-09-04T12:27:35.916Z,3.20
2022-09-04T12:30:17.353Z,4.83
2022-09-04T12:33:08.926Z,2.73
2022-09-04T12:35:56.806Z,3.53
2022-09-04T12:39:00.382Z,2.40
2022-09-04T12:41:50.104Z,2.33
2022-09-04T12:44:54.487Z,3.87
2022-09-04T12:47:47.939Z,2.53
2022-09-04T12:50:32.755Z,2.60
2022-09-04T12:53:25.995Z,2.80
2022-09-04T12:56:03.916Z,4.53
2022-09-04T12:59:02.390Z,2.27
2022-09-04T13:01:30.382Z,3.00
2022-09-04T13:04:19.554Z,2.33
2022-09-04T13:07:07.121Z,2.00
2022-09-04T13:09:42.552Z,3.47
2022-09-04T13:12:38.173Z,2.47
2022-09-04T13:15:51.134Z,1.67
2022-09-04T13:18:41.179Z,1.80
2022-09-04T13:21:38.531Z,2.03
2022-09-04T13:24:25.409Z,2.13
2022-09-04T13:27:26.828Z,3.63
2022-09-04T13:30:07.938Z,2.40
2022-09-04T13:32:47.624Z,2.17
2022-09-04T13:35:41.312Z,1.70
2022-09-04T13:38:32.327Z,2.20
2022-09-04T13:41:33.908Z,2.00
2022-09-04T13:44:22.203Z,1.83
2022-09-04T13:47:03.047Z,1.87
2022-09-04T13:49:38.372Z,3.47
2022-09-04T13:52:13.873Z,2.07
2022-09-04T13:54:46.110Z,2.00
2022-09-04T13:57:21.098Z,3.30
2022-09-04T13:59:49.916Z,3.47
2022-09-04T14:02:25.275Z,2.20
2022-09-04T14:04:58.342Z,1.63
2022-09-04T14:07:35.580Z,1.50
2022-09-04T14:10:09.918Z,1.43
2022-09-04T14:13:10.500Z,1.70
2022-09-04T14:15:51.443Z,2.47
2022-09-04T14:18:35.189Z,3.20
2022-09-04T14:21:29.484Z,1.57
2022-09-04T14:24:04.905Z,1.73
2022-09-04T14:26:37.511Z,3.43
2022-09-04T14:29:16.271Z,2.30
2022-09-04T14:32:12.161Z,1.77
2022-09-04T14:35:02.729Z,2.07
2022-09-04T14:37:37.981Z,2.90
2022-09-04T14:40:15.693Z,2.63
2022-09-04T14:43:03.524Z,2.00
2022-09-04T14:45:52.988Z,3.50
2022-09-04T14:48:24.169Z,2.80
2022-09-04T14:50:53.687Z,1.77
2022-09-04T14:53:26.289Z,2.03
2022-09-04T14:56:07.719Z,2.10
2022-09-04T14:58:39.726Z,3.37
2022-09-04T15:01:07.176Z,1.80
2022-09-04T15:03:46.505Z,3.93
2022-09-04T15:06:19.324Z,2.20
2022-09-04T15:08:49.897Z,1.97
2022-09-04T15:11:31.651Z,1.70
2022-09-04T15:14:12.332Z,3.20
2022-09-04T15:16:38.673Z,1.90
2022-09-04T15:19:24.347Z,3.03
2022-09-04T15:22:03.608Z,2.43
2022-09-04T15:24:50.187Z,3.20
2022-09-04T15:27:32.251Z,1.90
2022-09-04T15:30:03.286Z,2.00
2022-09-04T15:32:42.621Z,2.37
2022-09-04T15:35:32.693Z,1.97
2022-09-04T15:38:21.079Z,2.50
2022-09-04T15:41:16.733Z,2.00
2022-09-04T15:43:51.221Z,1.90
2022-09-04T15:46:32.904Z,2.40
2022-09-04T15:49:17.909Z,2.03
2022-09-04T15:51:55.940Z,4.13
2022-09-04T15:54:32.843Z,1.97
2022-09-04T15:57:10.686Z,1.97
2022-09-04T15:59:55.861Z,2.40
2022-09-04T16:02:46.399Z,1.87
2022-09-04T16:05:44.973Z,1.53
2022-09-04T16:08:23.566Z,2.57
2022-09-04T16:10:59.451Z,1.40
2022-09-04T16:13:25.799Z,1.80
2022-09-04T16:16:04.316Z,2.10
2022-09-04T16:18:47.862Z,1.57
2022-09-04T16:21:30.357Z,1.47
2022-09-04T16:24:05.535Z,1.57
2022-09-04T16:26:33.744Z,1.40
2022-09-04T16:29:29.968Z,1.30
2022-09-04T16:31:58.278Z,2.77
2022-09-04T16:34:29.440Z,1.53
2022-09-04T16:37:08.519Z,1.37
2022-09-04T16:39:52.011Z,1.40
2022-09-04T16:42:50.059Z,2.10
2022-09-04T16:45:25.460Z,1.57
2022-09-04T16:48:34.129Z,4.30
2022-09-04T16:51:27.344Z,1.60
2022-09-04T16:53:57.305Z,2.17
2022-09-04T16:56:37.128Z,1.30
2022-09-04T16:59:17.328Z,1.40
2022-09-04T17:01:58.902Z,2.00
2022-09-04T17:04:42.585Z,1.83
2022-09-04T17:07:18.576Z,1.17
2022-09-04T17:10:04.774Z,1.10
2022-09-04T17:12:40.339Z,3.50
2022-09-04T17:15:11.687Z,1.23
2022-09-04T17:17:43.686Z,1.67
2022-09-04T17:20:48.512Z,2.00
2022-09-04T17:28:56.267Z,1.50
2022-09-04T17:29:08.639Z,2.47
2022-09-04T17:29:33.773Z,1.50
2022-09-04T17:33:00.120Z,1.97
2022-09-04T17:40:33.803Z,1.20
2022-09-04T17:40:47.640Z,2.37
2022-09-04T17:41:37.916Z,1.73
2022-09-04T17:44:25.385Z,2.83
2022-09-04T17:47:06.668Z,3.87
2022-09-04T17:49:34.759Z,4.13
2022-09-04T17:52:07.197Z,4.97
2022-09-04T17:54:41.296Z,2.47
2022-09-04T17:57:35.024Z,5.20
2022-09-04T18:00:18.376Z,12.47
2022-09-04T18:02:48.362Z,3.70
2022-09-04T18:05:22.453Z,3.93
2022-09-04T18:08:09.358Z,2.63
2022-09-04T18:10:58.489Z,2.27
2022-09-04T18:13:42.822Z,5.40
2022-09-04T18:16:31.794Z,1.20
2022-09-04T18:19:15.262Z,1.70
2022-09-04T18:22:26.825Z,3.10
2022-09-04T18:24:56.085Z,2.90
2022-09-04T18:27:30.129Z,12.47
2022-09-04T18:34:29.636Z,8.80
2022-09-04T18:37:17.024Z,4.43
2022-09-04T18:37:20.116Z,6.93
2022-09-04T18:38:46.100Z,2.87
2022-09-04T18:45:57.809Z,2.47
2022-09-04T18:50:24.541Z,4.13
2022-09-04T18:50:46.486Z,7.03
2022-09-04T18:50:53.391Z,2.20
2022-09-04T18:53:06.168Z,4.67
2022-09-04T18:55:47.151Z,6.83
2022-09-04T18:58:13.549Z,3.63
2022-09-04T19:00:50.474Z,3.43
2022-09-04T19:03:25.412Z,2.20
2022-09-04T19:05:56.888Z,4.47
2022-09-04T19:08:30.889Z,3.20
2022-09-04T19:11:14.350Z,2.60
2022-09-04T19:14:10.787Z,2.87
2022-09-04T19:16:43.582Z,2.13
2022-09-04T19:19:19.571Z,2.87
2022-09-04T19:21:58.063Z,5.40
2022-09-04T19:24:34.622Z,3.10
2022-09-04T19:27:26.582Z,3.47
2022-09-04T19:30:18.328Z,1.33
2022-09-04T19:33:04.347Z,1.77
2022-09-04T19:35:54.947Z,2.33
2022-09-04T19:45:54.249Z,2.53
2022-09-04T19:46:02.657Z,1.80
2022-09-04T19:46:14.939Z,2.40
2022-09-04T19:47:42.197Z,5.43
2022-09-04T19:53:19.943Z,2.87
2022-09-04T19:53:37.590Z,1.83
2022-09-04T19:56:24.224Z,1.97
2022-09-04T19:58:57.983Z,1.30
2022-09-04T20:01:32.026Z,2.07
2022-09-04T20:04:24.180Z,2.73
2022-09-04T20:06:56.384Z,1.30
2022-09-04T20:09:37.897Z,1.77
2022-09-04T20:12:20.039Z,1.47
2022-09-04T20:14:56.105Z,1.33
2022-09-04T20:17:47.005Z,3.40
2022-09-04T20:20:23.013Z,2.47
2022-09-04T20:23:04.501Z,1.77
2022-09-04T20:26:09.466Z,1.70
2022-09-04T20:29:01.002Z,1.40
2022-09-04T20:31:38.984Z,1.70
2022-09-04T20:34:26.996Z,1.83
2022-09-04T20:37:17.492Z,1.70
2022-09-04T20:39:53.849Z,2.20
2022-09-04T20:42:27.229Z,3.47
2022-09-04T20:47:39.647Z,1.20
2022-09-04T20:52:49.223Z,1.70
2022-09-04T20:52:57.783Z,2.73
2022-09-04T20:53:44.466Z,2.47
2022-09-04T20:57:34.663Z,2.20
2022-09-04T21:03:11.237Z,1.63
2022-09-04T21:03:29.437Z,1.60
2022-09-04T21:06:22.636Z,2.60
2022-09-04T21:09:01.497Z,1.63
2022-09-04T21:11:40.456Z,2.20
2022-09-04T21:14:39.790Z,2.40
2022-09-04T21:17:50.934Z,1.70
2022-09-04T21:20:28.575Z,1.63
2022-09-04T21:23:04.112Z,3.37
2022-09-04T21:26:09.973Z,1.87
2022-09-04T21:28:52.007Z,1.83
2022-09-04T21:31:44.027Z,1.20
2022-09-04T21:34:43.776Z,2.23
2022-09-04T21:37:18.131Z,2.20
2022-09-04T21:39:58.257Z,1.93
2022-09-04T21:42:53.887Z,1.60
2022-09-04T21:45:34.581Z,2.30
2022-09-04T21:48:04.073Z,1.80
2022-09-04T21:50:52.854Z,1.80
2022-09-04T21:53:38.456Z,1.50
2022-09-04T22:00:08.030Z,2.13
2022-09-04T22:02:38.449Z,1.60
2022-09-04T22:02:51.309Z,1.50
2022-09-04T22:05:43.900Z,4.10
2022-09-04T22:13:32.521Z,2.73
2022-09-04T22:13:40.216Z,2.47
2022-09-04T22:14:32.987Z,2.33
2022-09-04T22:17:05.184Z,2.97
2022-09-04T22:20:04.708Z,3.63
2022-09-04T22:23:03.399Z,2.90
2022-09-04T22:26:24.151Z,3.37
2022-09-04T22:29:39.701Z,2.97
2022-09-04T22:32:48.098Z,3.57
2022-09-04T22:35:28.472Z,3.10
2022-09-04T22:38:28.897Z,1.90
2022-09-04T22:41:26.521Z,3.33
2022-09-04T22:44:08.283Z,1.93
2022-09-04T22:46:54.259Z,2.40
2022-09-04T22:49:38.740Z,1.80
2022-09-04T22:52:39.472Z,2.17
2022-09-04T22:55:40.271Z,2.73
2022-09-04T22:58:27.396Z,2.27
2022-09-04T23:01:15.489Z,2.30
2022-09-04T23:04:31.043Z,3.27
2022-09-04T23:13:16.366Z,1.63
2022-09-04T23:13:56.901Z,1.77
2022-09-04T23:13:59.148Z,2.77
2022-09-04T23:16:14.445Z,2.60
2022-09-04T23:20:35.783Z,3.43
2022-09-04T23:26:44.646Z,3.77
2022-09-04T23:26:47.172Z,3.43
2022-09-04T23:28:41.187Z,2.57
2022-09-04T23:32:07.070Z,2.37
2022-09-04T23:35:14.430Z,3.27
2022-09-04T23:38:00.963Z,3.20
2022-09-04T23:40:36.688Z,3.93
2022-09-04T23:43:42.213Z,2.40
2022-09-04T23:46:11.675Z,2.73
2022-09-04T23:49:06.711Z,3.57
2022-09-04T23:52:12.035Z,4.07
2022-09-04T23:54:56.804Z,2.60
2022-09-04T23:57:36.044Z,3.13
